sensor_id;sensor_type;location;lat;lon;timestamp;pressure;altitude;pressure_sealevel;temperature;humidity
78485;BME280;67773;50.806;8.776;2023-12-29T00:01:44;99299.09;;;6.50;83.46
78485;BME280;67773;50.806;8.776;2023-12-29T00:04:09;99301.81;;;6.49;83.62
78485;BME280;67773;50.806;8.776;2023-12-29T00:06:43;99297.41;;;6.49;84.23
78485;BME280;67773;50.806;8.776;2023-12-29T00:09:09;99299.41;;;6.43;84.38
78485;BME280;67773;50.806;8.776;2023-12-29T00:11:34;99289.72;;;6.43;84.40
78485;BME280;67773;50.806;8.776;2023-12-29T00:13:59;99292.66;;;6.35;84.92
78485;BME280;67773;50.806;8.776;2023-12-29T00:16:27;99281.44;;;6.30;85.72
78485;BME280;67773;50.806;8.776;2023-12-29T00:18:53;99284.38;;;6.23;86.16
78485;BME280;67773;50.806;8.776;2023-12-29T00:21:18;99283.34;;;6.27;86.19
78485;BME280;67773;50.806;8.776;2023-12-29T00:23:43;99277.97;;;6.30;85.96
78485;BME280;67773;50.806;8.776;2023-12-29T00:26:09;99282.38;;;6.29;85.70
78485;BME280;67773;50.806;8.776;2023-12-29T00:28:34;99276.19;;;6.30;85.32
78485;BME280;67773;50.806;8.776;2023-12-29T00:31:02;99277.31;;;6.23;85.57
78485;BME280;67773;50.806;8.776;2023-12-29T00:33:27;99276.31;;;6.27;85.65
78485;BME280;67773;50.806;8.776;2023-12-29T00:35:52;99277.81;;;6.33;85.31
78485;BME280;67773;50.806;8.776;2023-12-29T00:38:18;99273.66;;;6.27;85.00
78485;BME280;67773;50.806;8.776;2023-12-29T00:40:43;99278.03;;;6.28;85.32
78485;BME280;67773;50.806;8.776;2023-12-29T00:43:08;99278.75;;;6.32;84.98
78485;BME280;67773;50.806;8.776;2023-12-29T00:45:33;99280.34;;;6.36;84.48
78485;BME280;67773;50.806;8.776;2023-12-29T00:48:01;99287.22;;;6.40;84.29
78485;BME280;67773;50.806;8.776;2023-12-29T00:50:27;99284.50;;;6.42;84.27
78485;BME280;67773;50.806;8.776;2023-12-29T00:52:52;99288.84;;;6.43;84.23
78485;BME280;67773;50.806;8.776;2023-12-29T00:55:18;99278.66;;;6.55;83.19
78485;BME280;67773;50.806;8.776;2023-12-29T00:57:43;99270.03;;;6.52;83.33
78485;BME280;67773;50.806;8.776;2023-12-29T01:00:11;99274.69;;;6.45;83.18
78485;BME280;67773;50.806;8.776;2023-12-29T01:02:36;99280.94;;;6.43;83.64
78485;BME280;67773;50.806;8.776;2023-12-29T01:05:02;99274.69;;;6.45;83.08
78485;BME280;67773;50.806;8.776;2023-12-29T01:07:27;99278.25;;;6.44;83.05
78485;BME280;67773;50.806;8.776;2023-12-29T01:09:52;99281.09;;;6.40;83.39
78485;BME280;67773;50.806;8.776;2023-12-29T01:12:18;99274.31;;;6.54;82.52
78485;BME280;67773;50.806;8.776;2023-12-29T01:14:43;99277.75;;;6.56;82.10
78485;BME280;67773;50.806;8.776;2023-12-29T01:17:08;99283.56;;;6.64;81.63
78485;BME280;67773;50.806;8.776;2023-12-29T01:19:34;99275.41;;;6.71;80.75
78485;BME280;67773;50.806;8.776;2023-12-29T01:21:59;99263.00;;;6.73;81.25
78485;BME280;67773;50.806;8.776;2023-12-29T01:24:24;99259.22;;;6.80;80.18
78485;BME280;67773;50.806;8.776;2023-12-29T01:26:51;99264.09;;;6.89;79.68
78485;BME280;67773;50.806;8.776;2023-12-29T01:29:16;99253.88;;;7.02;78.99
78485;BME280;67773;50.806;8.776;2023-12-29T01:31:42;99247.59;;;7.04;78.45
78485;BME280;67773;50.806;8.776;2023-12-29T01:34:07;99250.25;;;7.04;78.31
78485;BME280;67773;50.806;8.776;2023-12-29T01:36:32;99239.53;;;7.07;78.12
78485;BME280;67773;50.806;8.776;2023-12-29T01:38:57;99235.78;;;7.13;77.39
78485;BME280;67773;50.806;8.776;2023-12-29T01:41:23;99230.84;;;7.05;77.81
78485;BME280;67773;50.806;8.776;2023-12-29T01:46:28;99233.06;;;7.14;77.23
78485;BME280;67773;50.806;8.776;2023-12-29T01:48:54;99229.66;;;7.12;77.42
78485;BME280;67773;50.806;8.776;2023-12-29T01:51:21;99231.63;;;7.07;77.49
78485;BME280;67773;50.806;8.776;2023-12-29T01:53:49;99230.44;;;7.14;76.95
78485;BME280;67773;50.806;8.776;2023-12-29T01:56:15;99220.66;;;7.16;77.02
78485;BME280;67773;50.806;8.776;2023-12-29T01:58:40;99216.31;;;7.15;76.92
78485;BME280;67773;50.806;8.776;2023-12-29T02:01:07;99211.75;;;7.19;77.01
78485;BME280;67773;50.806;8.776;2023-12-29T02:03:33;99213.88;;;7.11;77.00
78485;BME280;67773;50.806;8.776;2023-12-29T02:05:59;99221.25;;;7.23;76.72
78485;BME280;67773;50.806;8.776;2023-12-29T02:08:24;99220.56;;;7.19;76.38
78485;BME280;67773;50.806;8.776;2023-12-29T02:10:50;99222.25;;;7.20;76.33
78485;BME280;67773;50.806;8.776;2023-12-29T02:13:16;99222.91;;;7.26;76.56
78485;BME280;67773;50.806;8.776;2023-12-29T02:15:41;99208.00;;;7.24;76.45
78485;BME280;67773;50.806;8.776;2023-12-29T02:18:10;99206.75;;;7.13;76.86
78485;BME280;67773;50.806;8.776;2023-12-29T02:20:40;99205.38;;;7.04;77.23
78485;BME280;67773;50.806;8.776;2023-12-29T02:23:06;99222.91;;;7.05;77.07
78485;BME280;67773;50.806;8.776;2023-12-29T02:25:31;99210.50;;;7.07;76.80
78485;BME280;67773;50.806;8.776;2023-12-29T02:30:53;99213.44;;;7.01;77.39
78485;BME280;67773;50.806;8.776;2023-12-29T02:33:22;99195.50;;;7.09;76.81
78485;BME280;67773;50.806;8.776;2023-12-29T02:35:48;99205.22;;;7.07;76.70
78485;BME280;67773;50.806;8.776;2023-12-29T02:38:16;99204.25;;;7.10;76.88
78485;BME280;67773;50.806;8.776;2023-12-29T02:40:42;99208.69;;;7.09;77.44
78485;BME280;67773;50.806;8.776;2023-12-29T02:43:11;99192.00;;;7.09;76.99
78485;BME280;67773;50.806;8.776;2023-12-29T02:45:36;99211.66;;;7.02;77.41
78485;BME280;67773;50.806;8.776;2023-12-29T02:48:02;99208.41;;;7.15;76.38
78485;BME280;67773;50.806;8.776;2023-12-29T02:50:27;99198.53;;;7.00;77.35
78485;BME280;67773;50.806;8.776;2023-12-29T02:52:52;99216.53;;;7.11;77.00
78485;BME280;67773;50.806;8.776;2023-12-29T02:55:18;99212.09;;;7.11;76.93
78485;BME280;67773;50.806;8.776;2023-12-29T02:57:43;99203.25;;;7.12;76.91
78485;BME280;67773;50.806;8.776;2023-12-29T03:00:09;99215.38;;;7.16;76.88
78485;BME280;67773;50.806;8.776;2023-12-29T03:02:34;99211.16;;;7.33;76.45
78485;BME280;67773;50.806;8.776;2023-12-29T03:05:00;99210.38;;;7.31;76.32
78485;BME280;67773;50.806;8.776;2023-12-29T03:07:25;99210.06;;;7.37;76.13
78485;BME280;67773;50.806;8.776;2023-12-29T03:09:51;99201.88;;;7.43;75.38
78485;BME280;67773;50.806;8.776;2023-12-29T03:12:16;99204.31;;;7.47;75.78
78485;BME280;67773;50.806;8.776;2023-12-29T03:14:41;99198.09;;;7.48;75.39
78485;BME280;67773;50.806;8.776;2023-12-29T03:17:07;99200.31;;;7.58;74.97
78485;BME280;67773;50.806;8.776;2023-12-29T03:19:32;99183.53;;;7.59;75.17
78485;BME280;67773;50.806;8.776;2023-12-29T03:21:57;99171.19;;;7.59;74.82
78485;BME280;67773;50.806;8.776;2023-12-29T03:24:22;99178.25;;;7.59;74.85
78485;BME280;67773;50.806;8.776;2023-12-29T03:26:48;99177.81;;;7.68;74.70
78485;BME280;67773;50.806;8.776;2023-12-29T03:29:13;99168.63;;;7.76;74.54
78485;BME280;67773;50.806;8.776;2023-12-29T03:31:38;99173.47;;;7.67;74.47
78485;BME280;67773;50.806;8.776;2023-12-29T03:34:05;99164.53;;;7.69;73.70
78485;BME280;67773;50.806;8.776;2023-12-29T03:36:30;99162.56;;;7.74;74.01
78485;BME280;67773;50.806;8.776;2023-12-29T03:38:55;99166.63;;;7.81;73.65
78485;BME280;67773;50.806;8.776;2023-12-29T03:41:20;99170.41;;;7.76;73.96
78485;BME280;67773;50.806;8.776;2023-12-29T03:43:46;99168.63;;;7.76;74.19
78485;BME280;67773;50.806;8.776;2023-12-29T03:46:20;99168.09;;;7.87;73.14
78485;BME280;67773;50.806;8.776;2023-12-29T03:48:46;99176.88;;;7.88;73.24
78485;BME280;67773;50.806;8.776;2023-12-29T03:51:12;99161.81;;;7.90;73.40
78485;BME280;67773;50.806;8.776;2023-12-29T03:53:38;99160.88;;;7.91;73.63
78485;BME280;67773;50.806;8.776;2023-12-29T03:56:04;99164.31;;;7.93;73.05
78485;BME280;67773;50.806;8.776;2023-12-29T03:58:30;99152.81;;;7.94;73.39
78485;BME280;67773;50.806;8.776;2023-12-29T04:00:55;99170.06;;;8.01;73.43
78485;BME280;67773;50.806;8.776;2023-12-29T04:03:21;99146.22;;;8.02;72.89
78485;BME280;67773;50.806;8.776;2023-12-29T04:05:46;99143.63;;;8.01;73.09
78485;BME280;67773;50.806;8.776;2023-12-29T04:08:11;99139.16;;;8.03;73.46
78485;BME280;67773;50.806;8.776;2023-12-29T04:10:38;99136.72;;;7.98;73.41
78485;BME280;67773;50.806;8.776;2023-12-29T04:13:03;99143.78;;;7.98;73.35
78485;BME280;67773;50.806;8.776;2023-12-29T04:15:28;99144.50;;;8.01;73.22
78485;BME280;67773;50.806;8.776;2023-12-29T04:17:54;99142.00;;;7.98;73.98
78485;BME280;67773;50.806;8.776;2023-12-29T04:20:19;99137.91;;;8.10;73.16
78485;BME280;67773;50.806;8.776;2023-12-29T04:22:46;99127.97;;;8.15;72.66
78485;BME280;67773;50.806;8.776;2023-12-29T04:25:11;99128.09;;;8.12;72.94
78485;BME280;67773;50.806;8.776;2023-12-29T04:27:37;99125.88;;;8.04;73.87
78485;BME280;67773;50.806;8.776;2023-12-29T04:30:02;99139.84;;;8.06;74.01
78485;BME280;67773;50.806;8.776;2023-12-29T04:32:28;99125.53;;;8.10;73.41
78485;BME280;67773;50.806;8.776;2023-12-29T04:34:53;99127.25;;;8.11;73.34
78485;BME280;67773;50.806;8.776;2023-12-29T04:37:18;99137.28;;;8.22;72.84
78485;BME280;67773;50.806;8.776;2023-12-29T04:39:44;99122.81;;;8.12;73.40
78485;BME280;67773;50.806;8.776;2023-12-29T04:42:09;99121.09;;;8.11;73.73
78485;BME280;67773;50.806;8.776;2023-12-29T04:44:34;99138.22;;;8.21;73.10
78485;BME280;67773;50.806;8.776;2023-12-29T04:47:00;99136.97;;;8.11;73.68
78485;BME280;67773;50.806;8.776;2023-12-29T04:49:25;99150.50;;;8.22;73.16
78485;BME280;67773;50.806;8.776;2023-12-29T04:51:50;99139.81;;;8.25;73.03
78485;BME280;67773;50.806;8.776;2023-12-29T04:54:15;99145.09;;;8.25;72.90
78485;BME280;67773;50.806;8.776;2023-12-29T04:56:41;99139.03;;;8.23;73.21
78485;BME280;67773;50.806;8.776;2023-12-29T04:59:06;99147.16;;;8.19;73.52
78485;BME280;67773;50.806;8.776;2023-12-29T05:01:31;99146.63;;;8.29;73.82
78485;BME280;67773;50.806;8.776;2023-12-29T05:03:57;99145.22;;;8.22;73.96
78485;BME280;67773;50.806;8.776;2023-12-29T05:06:22;99148.66;;;8.24;73.58
78485;BME280;67773;50.806;8.776;2023-12-29T05:08:47;99140.94;;;8.20;73.73
78485;BME280;67773;50.806;8.776;2023-12-29T05:11:12;99150.38;;;8.25;73.65
78485;BME280;67773;50.806;8.776;2023-12-29T05:13:38;99140.56;;;8.27;74.21
78485;BME280;67773;50.806;8.776;2023-12-29T05:16:03;99144.34;;;8.41;73.14
78485;BME280;67773;50.806;8.776;2023-12-29T05:18:29;99149.59;;;8.23;73.91
78485;BME280;67773;50.806;8.776;2023-12-29T05:20:55;99134.81;;;8.19;74.11
78485;BME280;67773;50.806;8.776;2023-12-29T05:23:20;99135.44;;;8.24;74.20
78485;BME280;67773;50.806;8.776;2023-12-29T05:25:45;99133.75;;;8.23;73.74
78485;BME280;67773;50.806;8.776;2023-12-29T05:28:11;99127.41;;;8.45;73.38
78485;BME280;67773;50.806;8.776;2023-12-29T05:30:36;99132.13;;;8.38;73.23
78485;BME280;67773;50.806;8.776;2023-12-29T05:33:02;99144.50;;;8.37;74.20
78485;BME280;67773;50.806;8.776;2023-12-29T05:35:27;99143.03;;;8.49;73.30
78485;BME280;67773;50.806;8.776;2023-12-29T05:37:53;99143.41;;;8.42;73.94
78485;BME280;67773;50.806;8.776;2023-12-29T05:40:18;99147.63;;;8.46;73.12
78485;BME280;67773;50.806;8.776;2023-12-29T05:42:43;99153.84;;;8.45;73.41
78485;BME280;67773;50.806;8.776;2023-12-29T05:45:09;99144.66;;;8.34;73.41
78485;BME280;67773;50.806;8.776;2023-12-29T05:47:34;99144.19;;;8.44;73.78
78485;BME280;67773;50.806;8.776;2023-12-29T05:49:59;99133.94;;;8.55;73.54
78485;BME280;67773;50.806;8.776;2023-12-29T05:52:25;99129.41;;;8.39;74.13
78485;BME280;67773;50.806;8.776;2023-12-29T05:54:50;99125.59;;;8.45;73.67
78485;BME280;67773;50.806;8.776;2023-12-29T05:57:15;99127.88;;;8.35;74.38
78485;BME280;67773;50.806;8.776;2023-12-29T05:59:41;99145.84;;;8.46;73.75
78485;BME280;67773;50.806;8.776;2023-12-29T06:02:06;99142.00;;;8.52;73.97
78485;BME280;67773;50.806;8.776;2023-12-29T06:04:31;99142.78;;;8.54;73.16
78485;BME280;67773;50.806;8.776;2023-12-29T06:06:57;99140.47;;;8.48;74.30
78485;BME280;67773;50.806;8.776;2023-12-29T06:09:22;99144.72;;;8.50;74.27
78485;BME280;67773;50.806;8.776;2023-12-29T06:11:47;99142.72;;;8.55;74.09
78485;BME280;67773;50.806;8.776;2023-12-29T06:14:13;99145.41;;;8.54;73.99
78485;BME280;67773;50.806;8.776;2023-12-29T06:16:38;99151.25;;;8.60;73.53
78485;BME280;67773;50.806;8.776;2023-12-29T06:19:04;99140.06;;;8.55;73.99
78485;BME280;67773;50.806;8.776;2023-12-29T06:21:29;99150.31;;;8.61;73.88
78485;BME280;67773;50.806;8.776;2023-12-29T06:23:54;99157.03;;;8.51;74.11
78485;BME280;67773;50.806;8.776;2023-12-29T06:26:20;99153.91;;;8.43;74.61
78485;BME280;67773;50.806;8.776;2023-12-29T06:28:46;99165.81;;;8.52;74.47
78485;BME280;67773;50.806;8.776;2023-12-29T06:31:12;99160.31;;;8.56;74.29
78485;BME280;67773;50.806;8.776;2023-12-29T06:33:41;99163.94;;;8.54;74.45
78485;BME280;67773;50.806;8.776;2023-12-29T06:36:07;99171.25;;;8.49;74.52
78485;BME280;67773;50.806;8.776;2023-12-29T06:38:33;99151.72;;;8.51;74.42
78485;BME280;67773;50.806;8.776;2023-12-29T06:41:02;99154.75;;;8.61;74.06
78485;BME280;67773;50.806;8.776;2023-12-29T06:43:28;99157.41;;;8.44;75.47
78485;BME280;67773;50.806;8.776;2023-12-29T06:45:53;99162.78;;;8.42;75.04
78485;BME280;67773;50.806;8.776;2023-12-29T06:48:18;99165.34;;;8.44;75.31
78485;BME280;67773;50.806;8.776;2023-12-29T06:50:44;99154.28;;;8.53;75.22
78485;BME280;67773;50.806;8.776;2023-12-29T06:53:09;99163.03;;;8.55;75.08
78485;BME280;67773;50.806;8.776;2023-12-29T06:55:34;99159.44;;;8.56;75.16
78485;BME280;67773;50.806;8.776;2023-12-29T06:58:00;99163.16;;;8.52;74.90
78485;BME280;67773;50.806;8.776;2023-12-29T07:00:25;99167.50;;;8.53;75.22
78485;BME280;67773;50.806;8.776;2023-12-29T07:02:50;99165.72;;;8.53;75.16
78485;BME280;67773;50.806;8.776;2023-12-29T07:05:16;99161.53;;;8.49;75.79
78485;BME280;67773;50.806;8.776;2023-12-29T07:07:41;99167.38;;;8.56;75.21
78485;BME280;67773;50.806;8.776;2023-12-29T07:10:07;99165.88;;;8.50;76.25
78485;BME280;67773;50.806;8.776;2023-12-29T07:12:33;99166.06;;;8.47;76.09
78485;BME280;67773;50.806;8.776;2023-12-29T07:14:58;99170.94;;;8.37;76.49
78485;BME280;67773;50.806;8.776;2023-12-29T07:17:23;99168.63;;;8.49;76.04
78485;BME280;67773;50.806;8.776;2023-12-29T07:19:49;99175.91;;;8.44;75.77
78485;BME280;67773;50.806;8.776;2023-12-29T07:22:15;99174.19;;;8.43;76.09
78485;BME280;67773;50.806;8.776;2023-12-29T07:24:40;99174.44;;;8.38;76.28
78485;BME280;67773;50.806;8.776;2023-12-29T07:27:06;99169.16;;;8.38;76.60
78485;BME280;67773;50.806;8.776;2023-12-29T07:29:33;99171.63;;;8.41;76.24
78485;BME280;67773;50.806;8.776;2023-12-29T07:31:59;99168.91;;;8.43;76.13
78485;BME280;67773;50.806;8.776;2023-12-29T07:34:24;99165.81;;;8.34;76.53
78485;BME280;67773;50.806;8.776;2023-12-29T07:36:50;99164.63;;;8.40;76.08
78485;BME280;67773;50.806;8.776;2023-12-29T07:39:15;99157.41;;;8.44;76.12
78485;BME280;67773;50.806;8.776;2023-12-29T07:41:41;99162.78;;;8.42;75.74
78485;BME280;67773;50.806;8.776;2023-12-29T07:44:07;99177.66;;;8.45;75.79
78485;BME280;67773;50.806;8.776;2023-12-29T07:46:35;99174.44;;;8.38;75.79
78485;BME280;67773;50.806;8.776;2023-12-29T07:49:00;99177.69;;;8.43;75.96
78485;BME280;67773;50.806;8.776;2023-12-29T07:51:26;99173.75;;;8.34;76.48
78485;BME280;67773;50.806;8.776;2023-12-29T07:53:51;99171.63;;;8.41;76.49
78485;BME280;67773;50.806;8.776;2023-12-29T07:56:16;99168.63;;;8.49;75.66
78485;BME280;67773;50.806;8.776;2023-12-29T07:58:41;99162.84;;;8.41;76.35
78485;BME280;67773;50.806;8.776;2023-12-29T08:01:07;99176.56;;;8.49;76.04
78485;BME280;67773;50.806;8.776;2023-12-29T08:03:32;99163.50;;;8.46;76.10
78485;BME280;67773;50.806;8.776;2023-12-29T08:05:57;99183.16;;;8.40;76.89
78485;BME280;67773;50.806;8.776;2023-12-29T08:08:23;99165.97;;;8.49;76.63
78485;BME280;67773;50.806;8.776;2023-12-29T08:10:48;99174.38;;;8.39;76.85
78485;BME280;67773;50.806;8.776;2023-12-29T08:13:13;99170.09;;;8.37;77.14
78485;BME280;67773;50.806;8.776;2023-12-29T08:15:38;99159.13;;;8.45;76.74
78485;BME280;67773;50.806;8.776;2023-12-29T08:18:04;99168.44;;;8.52;76.85
78485;BME280;67773;50.806;8.776;2023-12-29T08:20:30;99165.19;;;8.47;77.23
78485;BME280;67773;50.806;8.776;2023-12-29T08:22:55;99164.75;;;8.56;77.28
78485;BME280;67773;50.806;8.776;2023-12-29T08:25:22;99163.16;;;8.52;77.56
78485;BME280;67773;50.806;8.776;2023-12-29T08:27:48;99158.03;;;8.66;77.26
78485;BME280;67773;50.806;8.776;2023-12-29T08:30:13;99159.66;;;8.68;76.78
78485;BME280;67773;50.806;8.776;2023-12-29T08:32:38;99164.56;;;8.59;77.41
78485;BME280;67773;50.806;8.776;2023-12-29T08:35:04;99163.56;;;8.61;77.75
78485;BME280;67773;50.806;8.776;2023-12-29T08:37:29;99165.72;;;8.53;77.60
78485;BME280;67773;50.806;8.776;2023-12-29T08:39:55;99180.13;;;8.48;78.24
78485;BME280;67773;50.806;8.776;2023-12-29T08:42:21;99171.19;;;8.50;78.32
78485;BME280;67773;50.806;8.776;2023-12-29T08:44:46;99180.38;;;8.60;77.95
78485;BME280;67773;50.806;8.776;2023-12-29T08:47:12;99175.63;;;8.50;78.43
78485;BME280;67773;50.806;8.776;2023-12-29T08:49:38;99175.63;;;8.50;78.72
78485;BME280;67773;50.806;8.776;2023-12-29T08:52:06;99165.34;;;8.61;78.88
78485;BME280;67773;50.806;8.776;2023-12-29T08:54:31;99164.41;;;8.62;78.93
78485;BME280;67773;50.806;8.776;2023-12-29T08:56:56;99162.53;;;8.64;78.49
78485;BME280;67773;50.806;8.776;2023-12-29T08:59:22;99154.00;;;8.59;79.02
78485;BME280;67773;50.806;8.776;2023-12-29T09:01:47;99157.09;;;8.67;79.20
78485;BME280;67773;50.806;8.776;2023-12-29T09:04:12;99150.97;;;8.49;79.71
78485;BME280;67773;50.806;8.776;2023-12-29T09:06:38;99132.19;;;8.54;79.20
78485;BME280;67773;50.806;8.776;2023-12-29T09:09:03;99140.84;;;8.57;79.13
78485;BME280;67773;50.806;8.776;2023-12-29T09:11:28;99140.13;;;8.54;79.34
78485;BME280;67773;50.806;8.776;2023-12-29T09:13:54;99135.25;;;8.46;79.81
78485;BME280;67773;50.806;8.776;2023-12-29T09:16:19;99136.63;;;8.71;78.25
78485;BME280;67773;50.806;8.776;2023-12-29T09:18:45;99141.53;;;8.61;78.31
78485;BME280;67773;50.806;8.776;2023-12-29T09:21:10;99124.63;;;8.63;78.31
78485;BME280;67773;50.806;8.776;2023-12-29T09:23:35;99125.50;;;8.64;78.07
78485;BME280;67773;50.806;8.776;2023-12-29T09:26:02;99124.09;;;8.74;77.56
78485;BME280;67773;50.806;8.776;2023-12-29T09:28:28;99124.72;;;8.79;77.30
78485;BME280;67773;50.806;8.776;2023-12-29T09:30:53;99123.47;;;8.86;77.19
78485;BME280;67773;50.806;8.776;2023-12-29T09:33:18;99131.06;;;8.92;77.16
78485;BME280;67773;50.806;8.776;2023-12-29T09:35:44;99136.34;;;8.92;76.72
78485;BME280;67773;50.806;8.776;2023-12-29T09:38:09;99116.66;;;8.98;76.22
78485;BME280;67773;50.806;8.776;2023-12-29T09:40:35;99121.31;;;8.93;76.03
78485;BME280;67773;50.806;8.776;2023-12-29T09:43:02;99116.09;;;9.09;75.74
78485;BME280;67773;50.806;8.776;2023-12-29T09:45:28;99119.06;;;9.03;75.30
78485;BME280;67773;50.806;8.776;2023-12-29T09:47:54;99123.25;;;9.07;75.45
78485;BME280;67773;50.806;8.776;2023-12-29T09:50:22;99127.19;;;9.15;74.91
78485;BME280;67773;50.806;8.776;2023-12-29T09:52:48;99116.50;;;9.17;75.18
78485;BME280;67773;50.806;8.776;2023-12-29T09:55:15;99141.91;;;9.21;75.13
78485;BME280;67773;50.806;8.776;2023-12-29T09:57:40;99134.63;;;9.24;74.46
78485;BME280;67773;50.806;8.776;2023-12-29T10:00:11;99124.75;;;9.28;74.93
78485;BME280;67773;50.806;8.776;2023-12-29T10:02:37;99124.56;;;9.31;74.30
78485;BME280;67773;50.806;8.776;2023-12-29T10:05:04;99116.28;;;9.37;74.56
78485;BME280;67773;50.806;8.776;2023-12-29T10:07:32;99130.19;;;9.25;74.55
78485;BME280;67773;50.806;8.776;2023-12-29T10:10:01;99138.13;;;9.25;74.89
78485;BME280;67773;50.806;8.776;2023-12-29T10:12:28;99128.47;;;9.24;74.97
78485;BME280;67773;50.806;8.776;2023-12-29T10:21:23;99135.97;;;9.16;75.56
78485;BME280;67773;50.806;8.776;2023-12-29T10:24:03;99133.09;;;9.20;75.94
78485;BME280;67773;50.806;8.776;2023-12-29T10:26:30;99126.19;;;9.34;75.88
78485;BME280;67773;50.806;8.776;2023-12-29T10:28:57;99138.66;;;9.32;75.77
78485;BME280;67773;50.806;8.776;2023-12-29T10:31:24;99128.25;;;9.29;75.74
78485;BME280;67773;50.806;8.776;2023-12-29T10:33:49;99130.81;;;9.30;76.29
78485;BME280;67773;50.806;8.776;2023-12-29T10:36:16;99126.53;;;9.28;76.10
78485;BME280;67773;50.806;8.776;2023-12-29T10:38:43;99128.25;;;9.29;76.00
78485;BME280;67773;50.806;8.776;2023-12-29T10:41:16;99135.56;;;9.23;76.13
78485;BME280;67773;50.806;8.776;2023-12-29T10:43:44;99147.97;;;9.23;75.99
78485;BME280;67773;50.806;8.776;2023-12-29T10:46:10;99134.53;;;9.26;76.15
78485;BME280;67773;50.806;8.776;2023-12-29T10:48:37;99136.09;;;9.30;76.85
78485;BME280;67773;50.806;8.776;2023-12-29T10:51:03;99137.19;;;9.26;76.67
78485;BME280;67773;50.806;8.776;2023-12-29T10:53:30;99133.94;;;9.21;76.67
78485;BME280;67773;50.806;8.776;2023-12-29T10:55:55;99131.91;;;9.26;76.96
78485;BME280;67773;50.806;8.776;2023-12-29T10:58:23;99132.69;;;9.28;76.65
78485;BME280;67773;50.806;8.776;2023-12-29T11:00:50;99139.34;;;9.35;76.87
78485;BME280;67773;50.806;8.776;2023-12-29T11:03:15;99131.03;;;9.25;77.80
78485;BME280;67773;50.806;8.776;2023-12-29T11:05:43;99124.66;;;9.30;77.42
78485;BME280;67773;50.806;8.776;2023-12-29T11:08:19;99130.81;;;9.30;77.43
78485;BME280;67773;50.806;8.776;2023-12-29T11:10:46;99131.78;;;9.12;78.80
78485;BME280;67773;50.806;8.776;2023-12-29T11:13:12;99126.00;;;9.21;78.41
78485;BME280;67773;50.806;8.776;2023-12-29T11:15:42;99130.94;;;9.27;78.17
78485;BME280;67773;50.806;8.776;2023-12-29T11:18:09;99136.63;;;9.52;77.17
78485;BME280;67773;50.806;8.776;2023-12-29T11:20:37;99139.63;;;9.46;77.19
78485;BME280;67773;50.806;8.776;2023-12-29T11:23:04;99127.72;;;9.38;77.60
78485;BME280;67773;50.806;8.776;2023-12-29T11:25:32;99118.00;;;9.38;77.52
78485;BME280;67773;50.806;8.776;2023-12-29T11:27:58;99124.50;;;9.48;77.16
78485;BME280;67773;50.806;8.776;2023-12-29T11:30:25;99121.94;;;9.47;76.42
78485;BME280;67773;50.806;8.776;2023-12-29T11:33:08;99117.84;;;9.41;76.69
78485;BME280;67773;50.806;8.776;2023-12-29T11:35:40;99123.47;;;9.51;75.78
78485;BME280;67773;50.806;8.776;2023-12-29T11:40:44;99118.34;;;9.48;76.14
78485;BME280;67773;50.806;8.776;2023-12-29T11:43:15;99116.38;;;9.51;75.95
78485;BME280;67773;50.806;8.776;2023-12-29T11:45:42;99113.81;;;9.50;76.79
78485;BME280;67773;50.806;8.776;2023-12-29T11:48:07;99113.75;;;9.51;75.54
78485;BME280;67773;50.806;8.776;2023-12-29T11:50:34;99107.31;;;9.55;75.60
78485;BME280;67773;50.806;8.776;2023-12-29T11:53:02;99103.81;;;9.55;75.63
78485;BME280;67773;50.806;8.776;2023-12-29T11:55:29;99111.84;;;9.53;76.14
78485;BME280;67773;50.806;8.776;2023-12-29T11:57:55;99102.97;;;9.54;75.39
78485;BME280;67773;50.806;8.776;2023-12-29T12:00:20;99103.75;;;9.41;76.85
78485;BME280;67773;50.806;8.776;2023-12-29T12:02:45;99089.38;;;9.45;75.94
78485;BME280;67773;50.806;8.776;2023-12-29T12:05:45;99094.44;;;9.49;75.70
78485;BME280;67773;50.806;8.776;2023-12-29T12:08:26;99107.75;;;9.32;77.07
78485;BME280;67773;50.806;8.776;2023-12-29T12:10:51;99099.97;;;9.29;77.59
78485;BME280;67773;50.806;8.776;2023-12-29T12:13:46;99093.56;;;9.33;77.94
78485;BME280;67773;50.806;8.776;2023-12-29T12:19:08;99102.84;;;9.24;78.78
78485;BME280;67773;50.806;8.776;2023-12-29T12:21:34;99096.13;;;9.19;78.90
78485;BME280;67773;50.806;8.776;2023-12-29T12:24:03;99087.91;;;9.23;79.06
78485;BME280;67773;50.806;8.776;2023-12-29T12:26:30;99091.34;;;9.41;78.02
78485;BME280;67773;50.806;8.776;2023-12-29T12:28:55;99090.16;;;9.31;78.08
78485;BME280;67773;50.806;8.776;2023-12-29T12:31:21;99083.31;;;9.43;77.54
78485;BME280;67773;50.806;8.776;2023-12-29T12:33:58;99085.53;;;9.35;78.13
78485;BME280;67773;50.806;8.776;2023-12-29T12:36:25;99082.63;;;9.39;77.06
78485;BME280;67773;50.806;8.776;2023-12-29T12:38:55;99090.72;;;9.36;77.62
78485;BME280;67773;50.806;8.776;2023-12-29T12:41:25;99086.06;;;9.41;77.65
78485;BME280;67773;50.806;8.776;2023-12-29T12:46:27;99081.25;;;9.48;76.83
78485;BME280;67773;50.806;8.776;2023-12-29T12:48:53;99080.06;;;9.53;76.66
78485;BME280;67773;50.806;8.776;2023-12-29T12:51:20;99070.31;;;9.54;76.38
78485;BME280;67773;50.806;8.776;2023-12-29T12:53:46;99069.13;;;9.60;75.85
78485;BME280;67773;50.806;8.776;2023-12-29T12:56:14;99073.72;;;9.72;74.71
78485;BME280;67773;50.806;8.776;2023-12-29T12:58:39;99073.47;;;9.61;74.44
78485;BME280;67773;50.806;8.776;2023-12-29T13:01:05;99067.25;;;9.62;74.58
78485;BME280;67773;50.806;8.776;2023-12-29T13:03:31;99056.88;;;9.73;74.38
78485;BME280;67773;50.806;8.776;2023-12-29T13:05:58;99053.72;;;9.66;74.66
78485;BME280;67773;50.806;8.776;2023-12-29T13:08:24;99051.69;;;9.71;74.19
78485;BME280;67773;50.806;8.776;2023-12-29T13:10:50;99059.53;;;9.73;73.64
78485;BME280;67773;50.806;8.776;2023-12-29T13:13:16;99058.69;;;9.72;74.04
78485;BME280;67773;50.806;8.776;2023-12-29T13:15:50;99059.94;;;9.81;73.92
78485;BME280;67773;50.806;8.776;2023-12-29T13:18:16;99061.16;;;9.75;73.88
78485;BME280;67773;50.806;8.776;2023-12-29T13:20:46;99056.88;;;9.73;73.88
78485;BME280;67773;50.806;8.776;2023-12-29T13:23:11;99057.56;;;9.76;74.02
78485;BME280;67773;50.806;8.776;2023-12-29T13:25:39;99049.41;;;9.79;73.57